sensor_id;sensor_type;location;lat;lon;timestamp;pressure;altitude;pressure_sealevel;temperature;humidity
69630;BME280;56857;52.212;5.496;2023-06-24T00:00:26;102532.84;;;18.59;100.00
69630;BME280;56857;52.212;5.496;2023-06-24T00:02:51;102524.97;;;18.58;100.00
69630;BME280;56857;52.212;5.496;2023-06-24T00:05:16;102521.63;;;18.56;100.00
69630;BME280;56857;52.212;5.496;2023-06-24T00:07:42;102521.16;;;18.52;100.00
69630;BME280;56857;52.212;5.496;2023-06-24T00:10:07;102521.81;;;18.54;100.00
69630;BME280;56857;52.212;5.496;2023-06-24T00:12:32;102528.84;;;18.55;100.00
69630;BME280;56857;52.212;5.496;2023-06-24T00:14:58;102539.75;;;18.53;100.00
69630;BME280;56857;52.212;5.496;2023-06-24T00:17:23;102530.25;;;18.51;100.00
69630;BME280;56857;52.212;5.496;2023-06-24T00:19:48;102534.28;;;18.47;100.00
69630;BME280;56857;52.212;5.496;2023-06-24T00:22:14;102529.47;;;18.42;100.00
69630;BME280;56857;52.212;5.496;2023-06-24T00:24:39;102539.53;;;18.40;100.00
69630;BME280;56857;52.212;5.496;2023-06-24T00:27:04;102530.66;;;18.40;100.00
69630;BME280;56857;52.212;5.496;2023-06-24T00:29:30;102530.00;;;18.38;100.00
69630;BME280;56857;52.212;5.496;2023-06-24T00:31:55;102524.16;;;18.34;100.00
69630;BME280;56857;52.212;5.496;2023-06-24T00:34:20;102534.41;;;18.30;100.00
69630;BME280;56857;52.212;5.496;2023-06-24T00:36:46;102529.88;;;18.31;100.00
69630;BME280;56857;52.212;5.496;2023-06-24T00:39:14;102534.41;;;18.30;100.00
69630;BME280;56857;52.212;5.496;2023-06-24T00:41:39;102533.78;;;18.28;100.00
69630;BME280;56857;52.212;5.496;2023-06-24T00:44:05;102535.78;;;18.26;100.00
69630;BME280;56857;52.212;5.496;2023-06-24T00:46:30;102532.63;;;18.23;100.00
69630;BME280;56857;52.212;5.496;2023-06-24T00:48:56;102527.63;;;18.20;100.00
69630;BME280;56857;52.212;5.496;2023-06-24T00:51:22;102530.66;;;18.17;100.00
69630;BME280;56857;52.212;5.496;2023-06-24T00:53:47;102530.34;;;18.12;100.00
69630;BME280;56857;52.212;5.496;2023-06-24T00:56:14;102535.09;;;18.10;100.00
69630;BME280;56857;52.212;5.496;2023-06-24T00:58:41;102542.13;;;18.11;100.00
69630;BME280;56857;52.212;5.496;2023-06-24T01:01:07;102541.91;;;18.12;100.00
69630;BME280;56857;52.212;5.496;2023-06-24T01:03:32;102546.28;;;18.13;100.00
69630;BME280;56857;52.212;5.496;2023-06-24T01:05:58;102551.19;;;18.10;100.00
69630;BME280;56857;52.212;5.496;2023-06-24T01:08:23;102544.13;;;18.09;100.00
69630;BME280;56857;52.212;5.496;2023-06-24T01:10:51;102536.75;;;18.11;100.00
69630;BME280;56857;52.212;5.496;2023-06-24T01:13:17;102532.41;;;18.10;100.00
69630;BME280;56857;52.212;5.496;2023-06-24T01:15:42;102537.25;;;18.06;100.00
69630;BME280;56857;52.212;5.496;2023-06-24T01:18:21;102542.81;;;18.04;100.00
69630;BME280;56857;52.212;5.496;2023-06-24T01:26:37;102526.47;;;17.91;100.00
69630;BME280;56857;52.212;5.496;2023-06-24T01:31:57;102535.88;;;17.87;100.00
69630;BME280;56857;52.212;5.496;2023-06-24T01:34:37;102518.66;;;17.81;100.00
69630;BME280;56857;52.212;5.496;2023-06-24T01:37:20;102517.16;;;17.79;100.00
69630;BME280;56857;52.212;5.496;2023-06-24T01:39:49;102519.00;;;17.78;100.00
69630;BME280;56857;52.212;5.496;2023-06-24T01:42:16;102514.47;;;17.79;100.00
69630;BME280;56857;52.212;5.496;2023-06-24T01:44:44;102514.78;;;17.76;100.00
69630;BME280;56857;52.212;5.496;2023-06-24T01:47:10;102510.59;;;17.73;100.00
69630;BME280;56857;52.212;5.496;2023-06-24T01:49:39;102518.84;;;17.72;100.00
69630;BME280;56857;52.212;5.496;2023-06-24T01:52:07;102523.88;;;17.67;100.00
69630;BME280;56857;52.212;5.496;2023-06-24T01:54:35;102514.69;;;17.61;100.00
69630;BME280;56857;52.212;5.496;2023-06-24T01:57:02;102513.53;;;17.55;100.00
69630;BME280;56857;52.212;5.496;2023-06-24T01:59:29;102511.03;;;17.54;100.00
69630;BME280;56857;52.212;5.496;2023-06-24T02:01:55;102517.44;;;17.53;100.00
69630;BME280;56857;52.212;5.496;2023-06-24T02:04:20;102517.59;;;17.51;100.00
69630;BME280;56857;52.212;5.496;2023-06-24T02:06:48;102512.41;;;17.50;100.00
69630;BME280;56857;52.212;5.496;2023-06-24T02:09:16;102517.59;;;17.51;100.00
69630;BME280;56857;52.212;5.496;2023-06-24T02:11:44;102514.22;;;17.49;100.00
69630;BME280;56857;52.212;5.496;2023-06-24T02:14:09;102511.75;;;17.48;100.00
69630;BME280;56857;52.212;5.496;2023-06-24T02:16:36;102504.19;;;17.43;100.00
69630;BME280;56857;52.212;5.496;2023-06-24T02:19:04;102511.41;;;17.43;100.00
69630;BME280;56857;52.212;5.496;2023-06-24T02:21:33;102506.41;;;17.40;100.00
69630;BME280;56857;52.212;5.496;2023-06-24T02:23:59;102510.28;;;17.37;100.00
69630;BME280;56857;52.212;5.496;2023-06-24T02:26:25;102512.97;;;17.37;100.00
69630;BME280;56857;52.212;5.496;2023-06-24T02:28:52;102509.63;;;17.35;100.00
69630;BME280;56857;52.212;5.496;2023-06-24T02:31:18;102506.94;;;17.35;100.00
69630;BME280;56857;52.212;5.496;2023-06-24T02:33:44;102508.44;;;17.37;100.00
69630;BME280;56857;52.212;5.496;2023-06-24T02:36:09;102493.19;;;17.38;100.00
69630;BME280;56857;52.212;5.496;2023-06-24T02:38:35;102492.50;;;17.36;100.00
69630;BME280;56857;52.212;5.496;2023-06-24T02:41:00;102483.97;;;17.32;100.00
69630;BME280;56857;52.212;5.496;2023-06-24T02:43:25;102487.19;;;17.28;100.00
69630;BME280;56857;52.212;5.496;2023-06-24T02:45:51;102492.56;;;17.28;100.00
69630;BME280;56857;52.212;5.496;2023-06-24T02:48:19;102483.00;;;17.25;100.00
69630;BME280;56857;52.212;5.496;2023-06-24T02:50:46;102493.06;;;17.23;100.00
69630;BME280;56857;52.212;5.496;2023-06-24T02:53:12;102500.44;;;17.21;100.00
69630;BME280;56857;52.212;5.496;2023-06-24T02:55:40;102496.44;;;17.17;100.00
69630;BME280;56857;52.212;5.496;2023-06-24T02:58:06;102497.59;;;17.14;100.00
69630;BME280;56857;52.212;5.496;2023-06-24T03:00:31;102498.97;;;17.10;100.00
69630;BME280;56857;52.212;5.496;2023-06-24T03:02:57;102498.47;;;17.07;100.00
69630;BME280;56857;52.212;5.496;2023-06-24T03:05:23;102499.66;;;17.04;100.00
69630;BME280;56857;52.212;5.496;2023-06-24T03:07:48;102485.44;;;17.04;100.00
69630;BME280;56857;52.212;5.496;2023-06-24T03:10:14;102476.72;;;17.02;100.00
69630;BME280;56857;52.212;5.496;2023-06-24T03:12:39;102485.97;;;16.99;100.00
69630;BME280;56857;52.212;5.496;2023-06-24T03:15:05;102487.13;;;16.97;100.00
69630;BME280;56857;52.212;5.496;2023-06-24T03:17:30;102488.31;;;16.94;100.00
69630;BME280;56857;52.212;5.496;2023-06-24T03:19:55;102496.00;;;16.89;100.00
69630;BME280;56857;52.212;5.496;2023-06-24T03:22:22;102501.22;;;16.82;100.00
69630;BME280;56857;52.212;5.496;2023-06-24T03:24:47;102493.50;;;16.79;100.00
69630;BME280;56857;52.212;5.496;2023-06-24T03:27:12;102496.19;;;16.79;100.00
69630;BME280;56857;52.212;5.496;2023-06-24T03:29:38;102493.34;;;16.81;100.00
69630;BME280;56857;52.212;5.496;2023-06-24T03:32:03;102506.06;;;16.79;100.00
69630;BME280;56857;52.212;5.496;2023-06-24T03:34:28;102509.91;;;16.76;100.00
69630;BME280;56857;52.212;5.496;2023-06-24T03:36:54;102514.59;;;16.74;100.00
69630;BME280;56857;52.212;5.496;2023-06-24T03:39:19;102507.06;;;16.69;100.00
69630;BME280;56857;52.212;5.496;2023-06-24T03:41:45;102512.59;;;16.68;100.00
69630;BME280;56857;52.212;5.496;2023-06-24T03:44:10;102511.25;;;16.64;100.00
69630;BME280;56857;52.212;5.496;2023-06-24T03:46:35;102522.78;;;16.64;100.00
69630;BME280;56857;52.212;5.496;2023-06-24T03:49:01;102511.09;;;16.65;100.00
69630;BME280;56857;52.212;5.496;2023-06-24T03:51:26;102500.72;;;16.62;100.00
69630;BME280;56857;52.212;5.496;2023-06-24T03:53:51;102506.22;;;16.61;100.00
69630;BME280;56857;52.212;5.496;2023-06-24T03:56:17;102503.38;;;16.62;100.00
69630;BME280;56857;52.212;5.496;2023-06-24T03:58:42;102497.34;;;16.60;100.00
69630;BME280;56857;52.212;5.496;2023-06-24T04:01:07;102495.69;;;16.59;100.00
69630;BME280;56857;52.212;5.496;2023-06-24T04:03:32;102499.19;;;16.60;100.00
69630;BME280;56857;52.212;5.496;2023-06-24T04:05:58;102504.75;;;16.58;100.00
69630;BME280;56857;52.212;5.496;2023-06-24T04:08:23;102503.88;;;16.58;100.00
69630;BME280;56857;52.212;5.496;2023-06-24T04:10:49;102509.22;;;16.58;100.00
69630;BME280;56857;52.212;5.496;2023-06-24T04:13:14;102511.25;;;16.56;100.00
69630;BME280;56857;52.212;5.496;2023-06-24T04:15:39;102515.59;;;16.57;100.00
69630;BME280;56857;52.212;5.496;2023-06-24T04:18:05;102517.09;;;16.59;100.00
69630;BME280;56857;52.212;5.496;2023-06-24T04:20:31;102521.44;;;16.60;100.00
69630;BME280;56857;52.212;5.496;2023-06-24T04:22:57;102517.78;;;16.61;100.00
69630;BME280;56857;52.212;5.496;2023-06-24T04:25:23;102520.63;;;16.60;100.00
69630;BME280;56857;52.212;5.496;2023-06-24T04:27:48;102524.13;;;16.60;100.00
69630;BME280;56857;52.212;5.496;2023-06-24T04:30:14;102514.09;;;16.62;100.00
69630;BME280;56857;52.212;5.496;2023-06-24T04:32:39;102523.63;;;16.65;100.00
69630;BME280;56857;52.212;5.496;2023-06-24T04:35:04;102516.44;;;16.65;100.00
69630;BME280;56857;52.212;5.496;2023-06-24T04:37:29;102523.47;;;16.66;100.00
69630;BME280;56857;52.212;5.496;2023-06-24T04:39:55;102520.09;;;16.64;100.00
69630;BME280;56857;52.212;5.496;2023-06-24T04:42:20;102522.78;;;16.64;100.00
69630;BME280;56857;52.212;5.496;2023-06-24T04:44:45;102522.63;;;16.66;100.00
69630;BME280;56857;52.212;5.496;2023-06-24T04:47:11;102511.09;;;16.65;100.00
69630;BME280;56857;52.212;5.496;2023-06-24T04:49:36;102525.13;;;16.67;100.00
69630;BME280;56857;52.212;5.496;2023-06-24T04:52:02;102513.25;;;16.70;100.00
69630;BME280;56857;52.212;5.496;2023-06-24T04:54:27;102511.25;;;16.72;100.00
69630;BME280;56857;52.212;5.496;2023-06-24T04:56:53;102502.91;;;16.75;100.00
69630;BME280;56857;52.212;5.496;2023-06-24T04:59:18;102516.63;;;16.80;100.00
69630;BME280;56857;52.212;5.496;2023-06-24T05:01:43;102518.09;;;16.83;100.00
69630;BME280;56857;52.212;5.496;2023-06-24T05:04:08;102522.13;;;16.87;100.00
69630;BME280;56857;52.212;5.496;2023-06-24T05:06:34;102525.13;;;16.92;100.00
69630;BME280;56857;52.212;5.496;2023-06-24T05:08:59;102533.50;;;16.97;100.00
69630;BME280;56857;52.212;5.496;2023-06-24T05:11:24;102529.66;;;17.00;100.00
69630;BME280;56857;52.212;5.496;2023-06-24T05:13:50;102530.97;;;17.04;100.00
69630;BME280;56857;52.212;5.496;2023-06-24T05:16:15;102535.16;;;17.06;100.00
69630;BME280;56857;52.212;5.496;2023-06-24T05:18:40;102536.66;;;17.09;100.00
69630;BME280;56857;52.212;5.496;2023-06-24T05:21:06;102531.13;;;17.10;100.00
69630;BME280;56857;52.212;5.496;2023-06-24T05:23:31;102533.66;;;17.12;100.00
69630;BME280;56857;52.212;5.496;2023-06-24T05:25:56;102535.97;;;17.15;100.00
69630;BME280;56857;52.212;5.496;2023-06-24T05:28:22;102527.94;;;17.15;100.00
69630;BME280;56857;52.212;5.496;2023-06-24T05:30:47;102527.59;;;17.18;100.00
69630;BME280;56857;52.212;5.496;2023-06-24T05:33:12;102523.72;;;17.21;100.00
69630;BME280;56857;52.212;5.496;2023-06-24T05:35:37;102528.91;;;17.22;100.00
69630;BME280;56857;52.212;5.496;2023-06-24T05:38:03;102533.94;;;17.25;100.00
69630;BME280;56857;52.212;5.496;2023-06-24T05:40:28;102537.09;;;17.29;100.00
69630;BME280;56857;52.212;5.496;2023-06-24T05:42:53;102534.91;;;17.32;100.00
69630;BME280;56857;52.212;5.496;2023-06-24T05:45:19;102534.75;;;17.34;100.00
69630;BME280;56857;52.212;5.496;2023-06-24T05:47:44;102534.41;;;17.37;100.00
69630;BME280;56857;52.212;5.496;2023-06-24T05:50:09;102536.91;;;17.38;100.00
69630;BME280;56857;52.212;5.496;2023-06-24T05:52:35;102534.03;;;17.40;100.00
69630;BME280;56857;52.212;5.496;2023-06-24T05:55:00;102534.56;;;17.44;100.00
69630;BME280;56857;52.212;5.496;2023-06-24T05:57:25;102537.88;;;17.46;100.00
69630;BME280;56857;52.212;5.496;2023-06-24T05:59:51;102537.53;;;17.49;100.00
69630;BME280;56857;52.212;5.496;2023-06-24T06:02:16;102526.66;;;17.50;100.00
69630;BME280;56857;52.212;5.496;2023-06-24T06:04:41;102529.97;;;17.52;100.00
69630;BME280;56857;52.212;5.496;2023-06-24T06:07:06;102535.84;;;17.56;100.00
69630;BME280;56857;52.212;5.496;2023-06-24T06:09:32;102541.69;;;17.59;100.00
69630;BME280;56857;52.212;5.496;2023-06-24T06:11:57;102537.81;;;17.62;100.00
69630;BME280;56857;52.212;5.496;2023-06-24T06:14:22;102533.09;;;17.64;100.00
69630;BME280;56857;52.212;5.496;2023-06-24T06:16:48;102536.28;;;17.68;100.00
69630;BME280;56857;52.212;5.496;2023-06-24T06:19:13;102529.72;;;17.70;100.00
69630;BME280;56857;52.212;5.496;2023-06-24T06:21:38;102529.38;;;17.73;100.00
69630;BME280;56857;52.212;5.496;2023-06-24T06:24:04;102531.72;;;17.76;100.00
69630;BME280;56857;52.212;5.496;2023-06-24T06:26:30;102542.94;;;17.80;100.00
69630;BME280;56857;52.212;5.496;2023-06-24T06:28:55;102535.56;;;17.82;100.00
69630;BME280;56857;52.212;5.496;2023-06-24T06:31:20;102537.91;;;17.85;100.00
69630;BME280;56857;52.212;5.496;2023-06-24T06:33:46;102537.38;;;17.90;100.00
69630;BME280;56857;52.212;5.496;2023-06-24T06:36:14;102538.03;;;17.92;100.00
69630;BME280;56857;52.212;5.496;2023-06-24T06:38:40;102533.16;;;17.95;100.00
69630;BME280;56857;52.212;5.496;2023-06-24T06:41:06;102536.31;;;17.99;100.00
69630;BME280;56857;52.212;5.496;2023-06-24T06:43:32;102532.25;;;18.03;100.00
69630;BME280;56857;52.212;5.496;2023-06-24T06:45:58;102536.44;;;18.05;100.00
69630;BME280;56857;52.212;5.496;2023-06-24T06:48:23;102544.13;;;18.09;100.00
69630;BME280;56857;52.212;5.496;2023-06-24T06:50:48;102542.78;;;18.13;100.00
69630;BME280;56857;52.212;5.496;2023-06-24T06:53:13;102545.94;;;18.16;100.00
69630;BME280;56857;52.212;5.496;2023-06-24T06:55:39;102539.34;;;18.19;100.00
69630;BME280;56857;52.212;5.496;2023-06-24T06:58:04;102540.84;;;18.21;100.00
69630;BME280;56857;52.212;5.496;2023-06-24T07:00:30;102541.16;;;18.26;100.00
69630;BME280;56857;52.212;5.496;2023-06-24T07:02:55;102540.97;;;18.28;100.00
69630;BME280;56857;52.212;5.496;2023-06-24T07:05:20;102540.63;;;18.31;100.00
69630;BME280;56857;52.212;5.496;2023-06-24T07:07:46;102531.38;;;18.34;100.00
69630;BME280;56857;52.212;5.496;2023-06-24T07:10:11;102532.88;;;18.36;100.00
69630;BME280;56857;52.212;5.496;2023-06-24T07:12:37;102528.78;;;18.40;100.00
69630;BME280;56857;52.212;5.496;2023-06-24T07:15:02;102536.50;;;18.43;100.00
69630;BME280;56857;52.212;5.496;2023-06-24T07:17:28;102535.16;;;18.47;100.00
69630;BME280;56857;52.212;5.496;2023-06-24T07:19:53;102536.44;;;18.51;100.00
69630;BME280;56857;52.212;5.496;2023-06-24T07:22:18;102532.38;;;18.56;100.00
69630;BME280;56857;52.212;5.496;2023-06-24T07:24:44;102542.38;;;18.62;100.00
69630;BME280;56857;52.212;5.496;2023-06-24T07:27:09;102541.88;;;18.66;100.00
69630;BME280;56857;52.212;5.496;2023-06-24T07:29:34;102542.34;;;18.70;100.00
69630;BME280;56857;52.212;5.496;2023-06-24T07:31:59;102549.88;;;18.74;100.00
69630;BME280;56857;52.212;5.496;2023-06-24T07:34:25;102546.66;;;18.79;100.00
69630;BME280;56857;52.212;5.496;2023-06-24T07:36:50;102540.72;;;18.84;100.00
69630;BME280;56857;52.212;5.496;2023-06-24T07:39:16;102539.16;;;18.89;100.00
69630;BME280;56857;52.212;5.496;2023-06-24T07:41:41;102542.75;;;18.96;100.00
69630;BME280;56857;52.212;5.496;2023-06-24T07:44:07;102535.81;;;19.02;100.00
69630;BME280;56857;52.212;5.496;2023-06-24T07:46:32;102536.94;;;19.08;100.00
69630;BME280;56857;52.212;5.496;2023-06-24T07:48:57;102531.84;;;19.13;100.00
69630;BME280;56857;52.212;5.496;2023-06-24T07:51:23;102533.78;;;19.19;100.00
69630;BME280;56857;52.212;5.496;2023-06-24T07:53:48;102538.44;;;19.25;100.00
69630;BME280;56857;52.212;5.496;2023-06-24T07:56:13;102526.09;;;19.31;100.00
69630;BME280;56857;52.212;5.496;2023-06-24T07:58:38;102523.50;;;19.37;100.00
69630;BME280;56857;52.212;5.496;2023-06-24T08:01:04;102522.75;;;19.43;100.00
69630;BME280;56857;52.212;5.496;2023-06-24T08:03:29;102527.38;;;19.50;100.00
69630;BME280;56857;52.212;5.496;2023-06-24T08:05:55;102524.78;;;19.56;100.00
69630;BME280;56857;52.212;5.496;2023-06-24T08:08:20;102526.53;;;19.64;100.00
69630;BME280;56857;52.212;5.496;2023-06-24T08:10:46;102528.31;;;19.72;100.00
69630;BME280;56857;52.212;5.496;2023-06-24T08:13:11;102529.41;;;19.77;100.00
69630;BME280;56857;52.212;5.496;2023-06-24T08:15:37;102524.72;;;19.86;100.00
69630;BME280;56857;52.212;5.496;2023-06-24T08:18:02;102529.19;;;19.94;100.00
69630;BME280;56857;52.212;5.496;2023-06-24T08:20:28;102531.72;;;20.02;100.00
69630;BME280;56857;52.212;5.496;2023-06-24T08:22:53;102531.25;;;20.13;100.00
69630;BME280;56857;52.212;5.496;2023-06-24T08:25:18;102525.75;;;20.21;100.00
69630;BME280;56857;52.212;5.496;2023-06-24T08:27:43;102528.72;;;20.33;100.00
69630;BME280;56857;52.212;5.496;2023-06-24T08:30:09;102526.78;;;20.48;100.00
69630;BME280;56857;52.212;5.496;2023-06-24T08:32:34;102526.38;;;20.66;100.00
69630;BME280;56857;52.212;5.496;2023-06-24T08:35:00;102525.41;;;20.80;100.00
69630;BME280;56857;52.212;5.496;2023-06-24T08:37:25;102515.19;;;20.97;100.00
69630;BME280;56857;52.212;5.496;2023-06-24T08:39:50;102524.19;;;21.11;100.00
69630;BME280;56857;52.212;5.496;2023-06-24T08:42:16;102516.16;;;21.24;100.00
69630;BME280;56857;52.212;5.496;2023-06-24T08:44:41;102511.50;;;21.40;100.00
69630;BME280;56857;52.212;5.496;2023-06-24T08:47:06;102517.16;;;21.51;100.00
69630;BME280;56857;52.212;5.496;2023-06-24T08:49:34;102516.38;;;21.64;100.00
69630;BME280;56857;52.212;5.496;2023-06-24T08:52:08;102518.69;;;21.74;100.00
69630;BME280;56857;52.212;5.496;2023-06-24T08:54:36;102516.63;;;21.83;100.00
69630;BME280;56857;52.212;5.496;2023-06-24T08:57:03;102507.50;;;21.90;100.00
69630;BME280;56857;52.212;5.496;2023-06-24T08:59:28;102508.56;;;22.03;100.00
69630;BME280;56857;52.212;5.496;2023-06-24T09:01:54;102512.56;;;22.13;100.00
69630;BME280;56857;52.212;5.496;2023-06-24T09:04:19;102508.44;;;22.24;100.00
69630;BME280;56857;52.212;5.496;2023-06-24T09:06:44;102509.66;;;22.35;100.00
69630;BME280;56857;52.212;5.496;2023-06-24T09:09:20;102511.53;;;22.48;100.00
69630;BME280;56857;52.212;5.496;2023-06-24T09:11:56;102506.97;;;22.61;100.00
69630;BME280;56857;52.212;5.496;2023-06-24T09:14:22;102505.31;;;22.74;100.00
69630;BME280;56857;52.212;5.496;2023-06-24T09:16:54;102503.81;;;22.84;100.00
69630;BME280;56857;52.212;5.496;2023-06-24T09:19:21;102499.88;;;22.94;100.00
69630;BME280;56857;52.212;5.496;2023-06-24T09:21:46;102496.97;;;23.02;100.00
69630;BME280;56857;52.212;5.496;2023-06-24T09:24:12;102495.06;;;23.09;100.00
69630;BME280;56857;52.212;5.496;2023-06-24T09:26:37;102498.16;;;23.19;100.00
69630;BME280;56857;52.212;5.496;2023-06-24T09:29:03;102502.50;;;23.27;100.00
69630;BME280;56857;52.212;5.496;2023-06-24T09:31:29;102497.25;;;23.39;100.00
69630;BME280;56857;52.212;5.496;2023-06-24T09:33:57;102502.44;;;23.47;100.00
69630;BME280;56857;52.212;5.496;2023-06-24T09:36:24;102502.59;;;23.58;100.00
69630;BME280;56857;52.212;5.496;2023-06-24T09:38:49;102498.19;;;23.71;100.00
69630;BME280;56857;52.212;5.496;2023-06-24T09:41:15;102501.84;;;23.83;100.00
69630;BME280;56857;52.212;5.496;2023-06-24T09:43:42;102498.66;;;23.93;100.00
69630;BME280;56857;52.212;5.496;2023-06-24T09:46:07;102486.91;;;24.05;100.00
69630;BME280;56857;52.212;5.496;2023-06-24T09:48:33;102490.34;;;24.19;100.00
69630;BME280;56857;52.212;5.496;2023-06-24T09:51:00;102485.06;;;24.31;100.00
69630;BME280;56857;52.212;5.496;2023-06-24T09:53:30;102486.84;;;24.44;100.00
69630;BME280;56857;52.212;5.496;2023-06-24T09:55:58;102486.72;;;24.57;100.00
69630;BME280;56857;52.212;5.496;2023-06-24T09:58:24;102483.25;;;24.68;100.00
69630;BME280;56857;52.212;5.496;2023-06-24T10:00:50;102483.59;;;24.79;100.00
69630;BME280;56857;52.212;5.496;2023-06-24T10:03:17;102482.00;;;24.89;100.00
69630;BME280;56857;52.212;5.496;2023-06-24T10:05:43;102470.63;;;24.99;100.00
69630;BME280;56857;52.212;5.496;2023-06-24T10:08:08;102477.19;;;25.10;100.00
69630;BME280;56857;52.212;5.496;2023-06-24T10:10:34;102479.16;;;25.21;100.00
69630;BME280;56857;52.212;5.496;2023-06-24T10:12:59;102478.41;;;25.32;100.00
69630;BME280;56857;52.212;5.496;2023-06-24T10:15:24;102479.50;;;25.43;100.00
69630;BME280;56857;52.212;5.496;2023-06-24T10:17:51;102467.28;;;25.52;100.00
69630;BME280;56857;52.212;5.496;2023-06-24T10:20:26;102469.31;;;25.57;100.00
69630;BME280;56857;52.212;5.496;2023-06-24T10:22:51;102466.72;;;25.62;100.00
69630;BME280;56857;52.212;5.496;2023-06-24T10:25:17;102470.63;;;25.66;100.00
69630;BME280;56857;52.212;5.496;2023-06-24T10:27:42;102467.00;;;25.72;100.00
69630;BME280;56857;52.212;5.496;2023-06-24T10:30:07;102464.81;;;25.81;100.00
69630;BME280;56857;52.212;5.496;2023-06-24T10:32:42;102462.22;;;25.86;100.00
69630;BME280;56857;52.212;5.496;2023-06-24T10:35:21;102466.38;;;25.88;100.00
69630;BME280;56857;52.212;5.496;2023-06-24T10:37:54;102459.88;;;25.89;100.00
69630;BME280;56857;52.212;5.496;2023-06-24T10:40:34;102466.13;;;25.90;100.00
69630;BME280;56857;52.212;5.496;2023-06-24T10:43:00;102454.34;;;25.96;100.00
69630;BME280;56857;52.212;5.496;2023-06-24T10:45:25;102453.16;;;26.04;100.00
69630;BME280;56857;52.212;5.496;2023-06-24T10:47:51;102450.09;;;26.12;100.00
69630;BME280;56857;52.212;5.496;2023-06-24T10:50:19;102447.53;;;26.17;100.00
69630;BME280;56857;52.212;5.496;2023-06-24T10:52:47;102439.00;;;26.25;100.00
69630;BME280;56857;52.212;5.496;2023-06-24T10:55:16;102447.03;;;26.32;100.00
69630;BME280;56857;52.212;5.496;2023-06-24T10:57:42;102440.44;;;26.40;100.00
69630;BME280;56857;52.212;5.496;2023-06-24T11:00:08;102444.84;;;26.52;100.00
69630;BME280;56857;52.212;5.496;2023-06-24T11:02:33;102450.97;;;26.60;100.00
69630;BME280;56857;52.212;5.496;2023-06-24T11:05:00;102443.50;;;26.67;100.00
69630;BME280;56857;52.212;5.496;2023-06-24T11:07:33;102435.13;;;26.68;100.00
69630;BME280;56857;52.212;5.496;2023-06-24T11:10:02;102439.59;;;26.74;100.00
69630;BME280;56857;52.212;5.496;2023-06-24T11:12:30;102442.53;;;26.85;100.00
69630;BME280;56857;52.212;5.496;2023-06-24T11:14:58;102440.28;;;26.93;100.00
69630;BME280;56857;52.212;5.496;2023-06-24T11:17:24;102442.53;;;26.96;100.00
69630;BME280;56857;52.212;5.496;2023-06-24T11:19:52;102436.00;;;26.97;100.00
69630;BME280;56857;52.212;5.496;2023-06-24T11:22:17;102436.34;;;27.01;100.00
69630;BME280;56857;52.212;5.496;2023-06-24T11:24:42;102438.34;;;27.06;100.00
69630;BME280;56857;52.212;5.496;2023-06-24T11:27:08;102438.44;;;27.11;100.00
69630;BME280;56857;52.212;5.496;2023-06-24T11:29:34;102436.47;;;27.18;100.00
69630;BME280;56857;52.212;5.496;2023-06-24T11:32:01;102440.09;;;27.23;100.00
69630;BME280;56857;52.212;5.496;2023-06-24T11:34:26;102438.44;;;27.22;100.00
69630;BME280;56857;52.212;5.496;2023-06-24T11:36:52;102430.75;;;27.19;99.00
69630;BME280;56857;52.212;5.496;2023-06-24T11:39:24;102433.97;;;27.16;100.00
69630;BME280;56857;52.212;5.496;2023-06-24T11:41:51;102426.50;;;27.12;100.00
69630;BME280;56857;52.212;5.496;2023-06-24T11:44:18;102428.53;;;27.04;100.00
69630;BME280;56857;52.212;5.496;2023-06-24T11:46:43;102422.16;;;26.99;100.00
69630;BME280;56857;52.212;5.496;2023-06-24T11:49:09;102424.78;;;26.94;100.00
69630;BME280;56857;52.212;5.496;2023-06-24T11:51:35;102419.00;;;26.90;99.40
69630;BME280;56857;52.212;5.496;2023-06-24T11:54:04;102417.69;;;26.93;100.00
69630;BME280;56857;52.212;5.496;2023-06-24T11:56:40;102417.28;;;27.01;100.00
69630;BME280;56857;52.212;5.496;2023-06-24T11:59:17;102419.06;;;27.07;100.00
69630;BME280;56857;52.212;5.496;2023-06-24T12:01:42;102408.66;;;27.16;100.00
69630;BME280;56857;52.212;5.496;2023-06-24T12:04:14;102412.84;;;27.23;99.82
69630;BME280;56857;52.212;5.496;2023-06-24T12:06:40;102408.34;;;27.29;98.80
69630;BME280;56857;52.212;5.496;2023-06-24T12:09:06;102411.19;;;27.34;99.51
69630;BME280;56857;52.212;5.496;2023-06-24T12:11:31;102409.94;;;27.42;99.15
69630;BME280;56857;52.212;5.496;2023-06-24T12:13:57;102406.00;;;27.49;99.31
69630;BME280;56857;52.212;5.496;2023-06-24T12:16:22;102408.47;;;27.51;99.09
69630;BME280;56857;52.212;5.496;2023-06-24T12:18:47;102408.41;;;27.46;99.03
69630;BME280;56857;52.212;5.496;2023-06-24T12:21:13;102406.88;;;27.38;99.31
69630;BME280;56857;52.212;5.496;2023-06-24T12:23:38;102399.69;;;27.32;99.40
69630;BME280;56857;52.212;5.496;2023-06-24T12:26:03;102406.94;;;27.26;100.00
69630;BME280;56857;52.212;5.496;2023-06-24T12:28:28;102397.00;;;27.20;100.00
69630;BME280;56857;52.212;5.496;2023-06-24T12:30:54;102400.69;;;27.14;100.00
69630;BME280;56857;52.212;5.496;2023-06-24T12:33:19;102396.44;;;27.07;100.00
69630;BME280;56857;52.212;5.496;2023-06-24T12:35:44;102397.91;;;26.97;100.00
69630;BME280;56857;52.212;5.496;2023-06-24T12:38:10;102400.44;;;26.87;98.93
69630;BME280;56857;52.212;5.496;2023-06-24T12:40:35;102396.16;;;26.79;100.00
69630;BME280;56857;52.212;5.496;2023-06-24T12:43:00;102393.38;;;26.74;100.00